Kezdőlap
METAR-TAF:

METAR-TAF

Repülőterek :

Antigua, Antigua és Barbuda

földrajzi szélesség: 17-07N, földrajzi hosszúság: 061-47W, magasság: 8 m

Jelenlegi meteorológiai megfigyelések

A jelentés 1 órával és 24 perccel ezelõtt készült, 02:00 UTC
Keleti szél 8 kt, északkeleti és délkeleti között változik
Hőmérséklet 28°C
Páratartalom 79%
Légköri nyomás 1016 hPa
Látótávolság 10 km, vagy több
Szórványos felhőzet 1800 lábon
Záporok a közelben,

METAR: TAPA 130200Z 08008KT 040V130 9999 VCSH SCT018 28/24 Q1016 NOSIG

Idő: 23:24 (03:24 UTC)

Előrejelzés

A jelentés 4 órával és 24 perccel ezelõtt készült, 23:00 UTC
Az előrejelzés 13-én 00 óra UTC és 13-én 24 óra UTC között érvényes
Keleti szél 8 kt
Látótávolság 10 km, vagy több
Szórványos felhőzet 2000 lábon
Valószínűség 30% :
13-én 12 óra UTC és 13-én 20 óra UTC között ideiglenes
záporok,

TAF: TAPA 122300Z 1300/1324 09008KT 9999 SCT020 PROB30 TEMPO 1312/1320 SHRA

Meteorológiai megfigyelések és előrejelzések több, mint 4000 repülőtéren (METAR és TAF jelentéseket).

A térképen piros és sárga pontok jelzik az elérhető meteorológiai állomásokat.

Mozgassa az egeret a pont fölött, hogy megjelenjen az állomás neve.

Azután kattintson az időjárási megfigyelések és előrejelzések megtekintéséhez.

A térkép megváltoztatása: kattintson a fekete keresztel jelölt zöld gombra ráközelítéshez, a vonallal jelölt zöld gombra távolításhoz, vagy a zöld nyilakra a szomszédos térképek eléréséhez.


METAR-TAF: